createdAt,value
2022-08-05T00:00:55.200Z,0
2022-08-05T00:02:29.380Z,0
2022-08-05T00:03:29.986Z,0
2022-08-05T00:04:31.800Z,0
2022-08-05T00:06:03.376Z,0
2022-08-05T00:07:59.607Z,0
2022-08-05T00:09:01.783Z,0
2022-08-05T00:10:01.905Z,0
2022-08-05T00:11:02.028Z,0
2022-08-05T00:12:02.141Z,0
2022-08-05T00:13:02.359Z,0
2022-08-05T00:14:11.927Z,0
2022-08-05T00:15:54.672Z,0
2022-08-05T00:17:01.638Z,0
2022-08-05T00:18:03.232Z,0
2022-08-05T00:19:03.676Z,0
2022-08-05T00:20:03.805Z,0
2022-08-05T00:21:03.932Z,0
2022-08-05T00:22:11.198Z,0
2022-08-05T00:23:13.079Z,0
2022-08-05T00:24:16.045Z,0
2022-08-05T00:25:34.637Z,0
2022-08-05T00:26:50.914Z,0
2022-08-05T00:27:53.427Z,0
2022-08-05T00:28:55.477Z,0
2022-08-05T00:29:56.322Z,0
2022-08-05T00:30:56.507Z,0
2022-08-05T00:32:10.833Z,0
2022-08-05T00:34:43.131Z,0
2022-08-05T00:36:15.302Z,0
2022-08-05T00:38:20.376Z,0
2022-08-05T00:39:36.905Z,0
2022-08-05T00:40:58.824Z,0
2022-08-05T00:41:59.892Z,0
2022-08-05T00:42:59.993Z,0
2022-08-05T00:44:00.137Z,0
2022-08-05T00:45:00.274Z,0
2022-08-05T00:46:00.394Z,0
2022-08-05T00:47:01.723Z,0
2022-08-05T00:48:06.307Z,0
2022-08-05T00:49:07.855Z,0
2022-08-05T00:50:14.700Z,0
2022-08-05T00:51:51.281Z,0
2022-08-05T00:52:53.553Z,0
2022-08-05T00:54:01.501Z,0
2022-08-05T00:55:03.375Z,0
2022-08-05T00:56:03.482Z,0
2022-08-05T00:57:03.594Z,0
2022-08-05T00:58:04.606Z,0
2022-08-05T00:59:06.819Z,0
2022-08-05T01:00:07.169Z,0
2022-08-05T01:01:13.470Z,0
2022-08-05T01:02:13.738Z,0
2022-08-05T01:03:22.462Z,0
2022-08-05T01:04:26.678Z,0
2022-08-05T01:05:30.296Z,0
2022-08-05T01:06:32.500Z,0
2022-08-05T01:07:33.037Z,0
2022-08-05T01:08:42.425Z,0
2022-08-05T01:09:55.298Z,0
2022-08-05T01:10:55.967Z,0
2022-08-05T01:12:00.753Z,0
2022-08-05T01:13:22.340Z,0
2022-08-05T01:14:59.909Z,0
2022-08-05T01:16:05.443Z,0
2022-08-05T01:17:05.578Z,0
2022-08-05T01:18:08.373Z,0
2022-08-05T01:19:11.685Z,0
2022-08-05T01:20:14.561Z,0
2022-08-05T01:21:21.966Z,0
2022-08-05T01:22:37.958Z,0
2022-08-05T01:23:39.780Z,0
2022-08-05T01:24:41.559Z,0
2022-08-05T01:25:41.755Z,0
2022-08-05T01:26:41.870Z,0
2022-08-05T01:27:50.815Z,0
2022-08-05T01:28:56.961Z,0
2022-08-05T01:30:05.656Z,0
2022-08-05T01:31:42.491Z,0
2022-08-05T01:32:45.512Z,0
2022-08-05T01:33:49.058Z,0
2022-08-05T01:34:55.437Z,0
2022-08-05T01:35:57.547Z,0
2022-08-05T01:37:00.579Z,0
2022-08-05T01:38:01.207Z,0
2022-08-05T01:39:01.566Z,0
2022-08-05T01:40:03.047Z,0
2022-08-05T01:41:03.319Z,0
2022-08-05T01:42:06.887Z,0
2022-08-05T01:43:09.928Z,0
2022-08-05T01:44:24.728Z,0
2022-08-05T01:45:42.932Z,0
2022-08-05T01:46:46.144Z,0
2022-08-05T01:47:47.811Z,0
2022-08-05T01:48:49.490Z,0
2022-08-05T01:50:00.689Z,0
2022-08-05T01:51:12.210Z,0
2022-08-05T01:52:17.739Z,0
2022-08-05T01:53:37.335Z,0
2022-08-05T01:55:02.163Z,0
2022-08-05T01:56:08.876Z,0
2022-08-05T01:58:08.985Z,0
2022-08-05T01:59:46.993Z,0
2022-08-05T02:00:47.494Z,0
2022-08-05T02:01:47.681Z,0
2022-08-05T02:02:51.333Z,0
2022-08-05T02:03:55.491Z,0
2022-08-05T02:04:57.768Z,0
2022-08-05T02:05:59.689Z,0
2022-08-05T02:07:38.269Z,0
2022-08-05T02:08:40.968Z,0
2022-08-05T02:09:59.463Z,0
2022-08-05T02:11:00.676Z,0
2022-08-05T02:12:00.779Z,0
2022-08-05T02:13:00.881Z,0
2022-08-05T02:14:01.522Z,0
2022-08-05T02:15:02.926Z,0
2022-08-05T02:16:03.451Z,0
2022-08-05T02:17:03.561Z,0
2022-08-05T02:18:29.129Z,0
2022-08-05T02:19:36.003Z,0
2022-08-05T02:20:47.880Z,0
2022-08-05T02:21:49.487Z,0
2022-08-05T02:22:49.596Z,0
2022-08-05T02:23:49.711Z,0
2022-08-05T02:24:51.286Z,0
2022-08-05T02:25:52.277Z,0
2022-08-05T02:26:54.170Z,0
2022-08-05T02:27:58.739Z,0
2022-08-05T02:29:00.830Z,0
2022-08-05T02:30:04.242Z,0
2022-08-05T02:31:04.421Z,0
2022-08-05T02:32:05.012Z,0
2022-08-05T02:33:05.153Z,0
2022-08-05T02:34:06.923Z,0
2022-08-05T02:35:13.444Z,0
2022-08-05T02:36:31.275Z,0
2022-08-05T02:37:32.149Z,0
2022-08-05T02:38:35.046Z,0
2022-08-05T02:39:35.840Z,0
2022-08-05T02:40:51.754Z,0
2022-08-05T02:41:58.295Z,0
2022-08-05T02:43:01.823Z,0
2022-08-05T02:44:02.169Z,0
2022-08-05T02:45:13.780Z,0
2022-08-05T02:46:16.559Z,0
2022-08-05T02:47:58.391Z,0
2022-08-05T02:49:13.689Z,0
2022-08-05T02:50:13.996Z,0
2022-08-05T02:51:18.375Z,0
2022-08-05T02:53:04.945Z,0
2022-08-05T02:54:34.731Z,0
2022-08-05T02:55:51.941Z,0
2022-08-05T02:57:02.496Z,0
2022-08-05T02:59:11.106Z,0
2022-08-05T03:00:11.215Z,0
2022-08-05T03:01:11.356Z,0
2022-08-05T03:02:15.604Z,0
2022-08-05T03:03:15.716Z,0
2022-08-05T03:04:16.861Z,0
2022-08-05T03:05:16.976Z,0
2022-08-05T03:08:07.222Z,0
2022-08-05T03:09:10.260Z,0
2022-08-05T03:10:38.141Z,0
2022-08-05T03:11:54.138Z,0
2022-08-05T03:14:04.947Z,0
2022-08-05T03:15:09.288Z,0
2022-08-05T03:16:12.648Z,0
2022-08-05T03:17:15.961Z,0
2022-08-05T03:18:17.365Z,0
2022-08-05T03:19:33.722Z,0
2022-08-05T03:20:36.417Z,0
2022-08-05T03:21:41.493Z,0
2022-08-05T03:22:50.567Z,0
2022-08-05T03:23:50.807Z,0
2022-08-05T03:24:52.172Z,0
2022-08-05T03:26:04.121Z,0
2022-08-05T03:27:39.493Z,0
2022-08-05T03:29:00.920Z,0
2022-08-05T03:30:07.122Z,0
2022-08-05T03:31:09.353Z,0
2022-08-05T03:33:00.726Z,0
2022-08-05T03:34:01.883Z,0
2022-08-05T03:35:02.001Z,0
2022-08-05T03:36:06.711Z,0
2022-08-05T03:37:12.444Z,0
2022-08-05T03:38:14.681Z,0
2022-08-05T03:39:19.974Z,0
2022-08-05T03:40:31.633Z,0
2022-08-05T03:41:38.564Z,0
2022-08-05T03:42:51.433Z,0
2022-08-05T03:43:59.457Z,0
2022-08-05T03:45:21.018Z,1
2022-08-05T03:46:23.897Z,3
2022-08-05T03:47:35.305Z,4
2022-08-05T03:48:42.109Z,5
2022-08-05T03:49:51.151Z,5
2022-08-05T03:50:52.699Z,8
2022-08-05T03:52:36.362Z,9
2022-08-05T03:57:28.971Z,9
2022-08-05T03:58:44.734Z,21
2022-08-05T03:59:47.462Z,21
2022-08-05T04:00:55.926Z,21
2022-08-05T04:01:58.822Z,27
2022-08-05T04:02:59.540Z,27
2022-08-05T04:04:09.570Z,33
2022-08-05T04:05:11.123Z,41
2022-08-05T04:06:11.233Z,41
2022-08-05T04:07:12.493Z,46
2022-08-05T04:08:14.391Z,51
2022-08-05T04:09:37.061Z,58
2022-08-05T04:10:38.271Z,64
2022-08-05T04:11:47.055Z,71
2022-08-05T04:12:53.182Z,71
2022-08-05T04:13:54.931Z,79
2022-08-05T04:14:55.050Z,86.96
2022-08-05T04:16:03.452Z,86.96
2022-08-05T04:17:05.126Z,96.96
2022-08-05T04:18:06.567Z,96.96
2022-08-05T04:19:22.516Z,110
2022-08-05T04:20:24.187Z,110
2022-08-05T04:22:05.422Z,130
2022-08-05T04:23:15.861Z,169.92
2022-08-05T04:24:19.025Z,189.92
2022-08-05T04:25:24.151Z,209.92
2022-08-05T04:27:01.210Z,209.92
2022-08-05T04:28:05.541Z,269.92
2022-08-05T04:29:13.258Z,269.92
2022-08-05T04:30:14.529Z,329.92
2022-08-05T04:31:14.771Z,329.92
2022-08-05T04:32:20.059Z,369.92
2022-08-05T04:33:55.071Z,409.92
2022-08-05T04:36:09.554Z,409.92
2022-08-05T04:38:01.834Z,409.92
2022-08-05T04:39:07.142Z,409.92
2022-08-05T04:40:07.589Z,569.92
2022-08-05T04:41:09.431Z,569.92
2022-08-05T04:42:10.325Z,569.92
2022-08-05T04:43:16.431Z,629.76
2022-08-05T04:44:21.074Z,629.76
2022-08-05T04:45:31.429Z,629.76
2022-08-05T04:46:56.475Z,699.52
2022-08-05T04:47:56.598Z,699.52
2022-08-05T04:48:58.038Z,699.52
2022-08-05T04:50:02.356Z,699.52
2022-08-05T04:51:11.992Z,769.92
2022-08-05T04:52:12.112Z,769.92
2022-08-05T04:53:12.254Z,769.92
2022-08-05T04:54:12.466Z,769.92
2022-08-05T04:55:14.872Z,769.92
2022-08-05T04:56:34.161Z,769.92
2022-08-05T04:57:37.654Z,769.92
2022-08-05T04:58:37.773Z,769.92
2022-08-05T04:59:38.693Z,769.92
2022-08-05T05:00:41.035Z,769.92
2022-08-05T05:02:06.532Z,939.52
2022-08-05T05:03:43.197Z,939.52
2022-08-05T05:04:47.999Z,939.52
2022-08-05T05:06:35.700Z,939.52
2022-08-05T05:08:01.066Z,1040
2022-08-05T05:09:05.574Z,1040
2022-08-05T05:10:06.206Z,1040
2022-08-05T05:11:06.796Z,1040
2022-08-05T05:12:08.175Z,1159.68
2022-08-05T05:13:08.305Z,1159.68
2022-08-05T05:14:08.745Z,1159.68
2022-08-05T05:15:17.422Z,1159.68
2022-08-05T05:17:09.259Z,1159.68
2022-08-05T05:18:09.773Z,1159.68
2022-08-05T05:19:19.083Z,1159.68
2022-08-05T05:20:44.195Z,1280
2022-08-05T05:21:50.532Z,1280
2022-08-05T05:22:55.850Z,1280
2022-08-05T05:24:02.580Z,1280
2022-08-05T05:25:15.952Z,1419.52
2022-08-05T05:26:17.712Z,1579.52
2022-08-05T05:27:17.838Z,1760
2022-08-05T05:28:21.526Z,1760
2022-08-05T05:29:21.640Z,1959.68
2022-08-05T05:30:29.024Z,2199.04
2022-08-05T05:32:40.076Z,2698.24
2022-08-05T05:33:43.413Z,2698.24
2022-08-05T05:35:03.091Z,2698.24
2022-08-05T05:36:05.952Z,2659.84
2022-08-05T05:37:06.233Z,2379.52
2022-08-05T05:38:06.345Z,2379.52
2022-08-05T05:39:14.424Z,2379.52
2022-08-05T05:40:19.823Z,2379.52
2022-08-05T05:41:20.064Z,2379.52
2022-08-05T05:42:20.812Z,2379.52
2022-08-05T05:43:22.029Z,2379.52
2022-08-05T05:45:00.899Z,2379.52
2022-08-05T05:46:03.315Z,2379.52
2022-08-05T05:47:21.442Z,2379.52
2022-08-05T05:49:06.376Z,2379.52
2022-08-05T05:50:23.485Z,2400
2022-08-05T05:51:27.773Z,2639.36
2022-08-05T05:52:32.781Z,2639.36
2022-08-05T05:53:54.723Z,2639.36
2022-08-05T05:55:00.160Z,2639.36
2022-08-05T05:56:13.453Z,2639.36
2022-08-05T05:57:18.983Z,2639.36
2022-08-05T05:58:19.802Z,2639.36
2022-08-05T05:59:32.564Z,2639.36
2022-08-05T06:00:40.630Z,2639.36
2022-08-05T06:01:53.870Z,2639.36
2022-08-05T06:02:58.925Z,2639.36
2022-08-05T06:04:01.493Z,2639.36
2022-08-05T06:05:10.291Z,2639.36
2022-08-05T06:06:17.462Z,2639.36
2022-08-05T06:07:17.633Z,2639.36
2022-08-05T06:08:57.911Z,2639.36
2022-08-05T06:10:00.318Z,2639.36
2022-08-05T06:11:10.235Z,2639.36
2022-08-05T06:12:13.599Z,2639.36
2022-08-05T06:13:15.711Z,2639.36
2022-08-05T06:14:15.828Z,2777.6
2022-08-05T06:15:23.826Z,3059.2
2022-08-05T06:17:52.568Z,3059.2
2022-08-05T06:18:55.057Z,3059.2
2022-08-05T06:19:56.503Z,3059.2
2022-08-05T06:21:00.072Z,3059.2
2022-08-05T06:22:00.432Z,3059.2
2022-08-05T06:23:00.532Z,3059.2
2022-08-05T06:24:04.342Z,3059.2
2022-08-05T06:25:24.203Z,3059.2
2022-08-05T06:28:09.604Z,3059.2
2022-08-05T06:29:24.914Z,3059.2
2022-08-05T06:31:21.700Z,3059.2
2022-08-05T06:32:32.294Z,3059.2
2022-08-05T06:33:33.211Z,3059.2
2022-08-05T06:35:15.366Z,3059.2
2022-08-05T06:37:10.488Z,3059.2
2022-08-05T06:38:12.539Z,3059.2
2022-08-05T06:39:12.666Z,3059.2
2022-08-05T06:40:14.091Z,2777.6
2022-08-05T06:41:28.053Z,2777.6
2022-08-05T06:42:41.453Z,2777.6
2022-08-05T06:43:52.088Z,2777.6
2022-08-05T06:45:05.371Z,2777.6
2022-08-05T06:46:20.690Z,2777.6
2022-08-05T06:47:29.905Z,2777.6
2022-08-05T06:50:00.001Z,2777.6
2022-08-05T06:51:07.332Z,3379.2
2022-08-05T06:52:36.454Z,3038.72
2022-08-05T06:53:40.717Z,2698.24
2022-08-05T06:54:53.940Z,2698.24
2022-08-05T06:55:54.078Z,3379.2
2022-08-05T06:57:13.805Z,3758.08
2022-08-05T06:59:38.664Z,4659.2
2022-08-05T07:00:58.255Z,4659.2
2022-08-05T07:01:58.552Z,4659.2
2022-08-05T07:02:59.173Z,4659.2
2022-08-05T07:03:59.284Z,4659.2
2022-08-05T07:04:59.534Z,4659.2
2022-08-05T07:05:59.930Z,4659.2
2022-08-05T07:07:00.032Z,4659.2
2022-08-05T07:08:00.165Z,4659.2
2022-08-05T07:09:05.020Z,4659.2
2022-08-05T07:10:05.165Z,4659.2
2022-08-05T07:11:07.630Z,3737.6
2022-08-05T07:12:16.143Z,3737.6
2022-08-05T07:13:16.275Z,3737.6
2022-08-05T07:15:00.234Z,3737.6
2022-08-05T07:16:04.472Z,3737.6
2022-08-05T07:17:57.419Z,3737.6
2022-08-05T07:19:12.519Z,3737.6
2022-08-05T07:21:59.665Z,3737.6
2022-08-05T07:23:02.824Z,3737.6
2022-08-05T07:24:04.807Z,3737.6
2022-08-05T07:25:24.292Z,3737.6
2022-08-05T07:26:57.261Z,3737.6
2022-08-05T07:28:02.558Z,3737.6
2022-08-05T07:29:17.191Z,3737.6
2022-08-05T07:30:22.540Z,3737.6
2022-08-05T07:31:40.576Z,3737.6
2022-08-05T07:32:55.610Z,3737.6
2022-08-05T07:33:59.903Z,4439.04
2022-08-05T07:35:00.076Z,4439.04
2022-08-05T07:37:21.610Z,5437.44
2022-08-05T07:38:32.634Z,5995.52
2022-08-05T07:40:03.959Z,5995.52
2022-08-05T07:42:10.011Z,5995.52
2022-08-05T07:43:20.563Z,5995.52
2022-08-05T07:44:21.552Z,5995.52
2022-08-05T07:45:31.148Z,5995.52
2022-08-05T07:46:59.078Z,5995.52
2022-08-05T07:48:00.531Z,5995.52
2022-08-05T07:49:05.334Z,5995.52
2022-08-05T07:50:08.137Z,5995.52
2022-08-05T07:51:08.646Z,6497.28
2022-08-05T07:52:53.681Z,6497.28
2022-08-05T07:53:53.793Z,7178.24
2022-08-05T07:54:54.196Z,7178.24
2022-08-05T07:56:05.044Z,7178.24
2022-08-05T07:58:54.587Z,7178.24
2022-08-05T07:59:59.652Z,7178.24
2022-08-05T08:00:59.902Z,7956.48
2022-08-05T08:02:05.958Z,7956.48
2022-08-05T08:03:18.338Z,7956.48
2022-08-05T08:04:22.327Z,7956.48
2022-08-05T08:05:39.472Z,7956.48
2022-08-05T08:06:49.540Z,7956.48
2022-08-05T08:07:58.847Z,7137.28
2022-08-05T08:09:00.888Z,6415.36
2022-08-05T08:10:01.010Z,6415.36
2022-08-05T08:11:01.645Z,6415.36
2022-08-05T08:12:09.521Z,5760
2022-08-05T08:14:00.942Z,5760
2022-08-05T08:15:02.355Z,5760
2022-08-05T08:16:34.030Z,5760
2022-08-05T08:17:53.786Z,5760
2022-08-05T08:18:54.066Z,5137.92
2022-08-05T08:20:10.980Z,5137.92
2022-08-05T08:22:09.417Z,5137.92
2022-08-05T08:24:00.891Z,5795.84
2022-08-05T08:25:15.974Z,5795.84
2022-08-05T08:27:00.798Z,8919.04
2022-08-05T08:28:11.475Z,8919.04
2022-08-05T08:30:04.868Z,8919.04
2022-08-05T08:31:47.582Z,8919.04
2022-08-05T08:32:48.817Z,9835.52
2022-08-05T08:33:51.548Z,9835.52
2022-08-05T08:34:53.434Z,9835.52
2022-08-05T08:36:12.929Z,9835.52
2022-08-05T08:37:57.816Z,9835.52
2022-08-05T08:38:59.963Z,9835.52
2022-08-05T08:40:02.053Z,9835.52
2022-08-05T08:41:04.666Z,9835.52
2022-08-05T08:42:09.019Z,9835.52
2022-08-05T08:45:17.616Z,9835.52
2022-08-05T08:46:30.626Z,9835.52
2022-08-05T08:47:47.837Z,11397.12
2022-08-05T08:50:23.542Z,11397.12
2022-08-05T08:53:08.277Z,10199.04
2022-08-05T08:54:13.745Z,10199.04
2022-08-05T08:55:14.050Z,10199.04
2022-08-05T08:57:06.213Z,10199.04
2022-08-05T08:58:13.601Z,11397.12
2022-08-05T08:59:15.011Z,11397.12
2022-08-05T09:00:21.496Z,11397.12
2022-08-05T09:01:22.008Z,11397.12
2022-08-05T09:02:24.248Z,11397.12
2022-08-05T09:03:27.487Z,11397.12
2022-08-05T09:04:47.629Z,11397.12
2022-08-05T09:06:38.355Z,11397.12
2022-08-05T09:07:57.266Z,11397.12
2022-08-05T09:08:59.316Z,11397.12
2022-08-05T09:09:59.468Z,11397.12
2022-08-05T09:10:59.575Z,10398.72
2022-08-05T09:12:05.994Z,10398.72
2022-08-05T09:13:31.593Z,10398.72
2022-08-05T09:15:58.216Z,10398.72
2022-08-05T09:16:58.611Z,10398.72
2022-08-05T09:17:59.840Z,10398.72
2022-08-05T09:18:59.950Z,10398.72
2022-08-05T09:20:02.037Z,10398.72
2022-08-05T09:21:05.845Z,10398.72
2022-08-05T09:23:27.299Z,10398.72
2022-08-05T09:24:43.985Z,10398.72
2022-08-05T09:26:00.713Z,10398.72
2022-08-05T09:27:09.387Z,12390.4
2022-08-05T09:28:09.553Z,14192.64
2022-08-05T09:29:18.754Z,14192.64
2022-08-05T09:30:23.381Z,17592.32
2022-08-05T09:31:43.773Z,19394.56
2022-08-05T09:33:47.104Z,19394.56
2022-08-05T09:34:51.043Z,19394.56
2022-08-05T09:35:51.153Z,19394.56
2022-08-05T09:36:55.426Z,19394.56
2022-08-05T09:38:11.921Z,19394.56
2022-08-05T09:39:41.723Z,19394.56
2022-08-05T09:40:57.119Z,19394.56
2022-08-05T09:41:57.233Z,19394.56
2022-08-05T09:42:58.733Z,19394.56
2022-08-05T09:43:58.852Z,19394.56
2022-08-05T09:45:03.540Z,19394.56
2022-08-05T09:47:12.590Z,19394.56
2022-08-05T09:48:20.955Z,19394.56
2022-08-05T09:49:21.158Z,19394.56
2022-08-05T09:51:03.625Z,19394.56
2022-08-05T09:52:16.070Z,19394.56
2022-08-05T09:53:23.203Z,19394.56
2022-08-05T09:54:59.430Z,19394.56
2022-08-05T09:57:04.574Z,19394.56
2022-08-05T09:58:23.844Z,18995.2
2022-08-05T09:59:23.967Z,18995.2
2022-08-05T10:00:29.534Z,18995.2
2022-08-05T10:01:32.789Z,18995.2
2022-08-05T10:02:33.197Z,18995.2
2022-08-05T10:03:38.840Z,18995.2
2022-08-05T10:05:00.598Z,18995.2
2022-08-05T10:06:03.655Z,18995.2
2022-08-05T10:07:19.754Z,18995.2
2022-08-05T10:09:44.792Z,18995.2
2022-08-05T10:10:45.761Z,18995.2
2022-08-05T10:11:54.946Z,18995.2
2022-08-05T10:12:58.715Z,18995.2
2022-08-05T10:13:58.826Z,18995.2
2022-08-05T10:14:59.486Z,18995.2
2022-08-05T10:15:59.870Z,18995.2
2022-08-05T10:16:59.988Z,18995.2
2022-08-05T10:18:00.221Z,21790.72
2022-08-05T10:19:01.760Z,21790.72
2022-08-05T10:20:11.829Z,21790.72
2022-08-05T10:21:15.840Z,21790.72
2022-08-05T10:22:29.592Z,21790.72
2022-08-05T10:23:56.309Z,21790.72
2022-08-05T10:25:06.313Z,21790.72
2022-08-05T10:26:08.438Z,21790.72
2022-08-05T10:27:16.673Z,22794.24
2022-08-05T10:28:19.278Z,22794.24
2022-08-05T10:30:07.386Z,25190.4
2022-08-05T10:34:03.086Z,25190.4
2022-08-05T10:35:06.993Z,25190.4
2022-08-05T10:36:07.121Z,25190.4
2022-08-05T10:37:08.609Z,22179.84
2022-08-05T10:38:11.812Z,16998.4
2022-08-05T10:39:15.092Z,13393.92
2022-08-05T10:41:19.362Z,13393.92
2022-08-05T10:42:32.336Z,13393.92
2022-08-05T10:43:37.888Z,10792.96
2022-08-05T10:44:38.638Z,10792.96
2022-08-05T10:45:42.493Z,13598.72
2022-08-05T10:46:43.144Z,17797.12
2022-08-05T10:47:46.968Z,22384.64
2022-08-05T10:49:48.912Z,22384.64
2022-08-05T10:51:37.209Z,24186.88
2022-08-05T10:53:02.846Z,18995.2
2022-08-05T10:54:06.051Z,16793.6
2022-08-05T10:56:03.209Z,21585.92
2022-08-05T10:57:26.298Z,26583.04
2022-08-05T10:58:47.973Z,29388.8
2022-08-05T11:00:01.742Z,29388.8
2022-08-05T11:01:28.199Z,29388.8
2022-08-05T11:03:23.981Z,29388.8
2022-08-05T11:04:27.512Z,29388.8
2022-08-05T11:05:36.595Z,19998.72
2022-08-05T11:06:36.916Z,15595.52
2022-08-05T11:08:01.615Z,12195.84
2022-08-05T11:09:45.717Z,15994.88
2022-08-05T11:10:50.112Z,22794.24
2022-08-05T11:12:12.035Z,28590.08
2022-08-05T11:13:12.159Z,28590.08
2022-08-05T11:14:17.336Z,28590.08
2022-08-05T11:15:19.516Z,31784.96
2022-08-05T11:16:21.753Z,31784.96
2022-08-05T11:17:58.532Z,31784.96
2022-08-05T11:20:09.801Z,31784.96
2022-08-05T11:21:22.203Z,31784.96
2022-08-05T11:22:23.039Z,43376.64
2022-08-05T11:23:23.157Z,57794.56
2022-08-05T11:25:16.717Z,57794.56
2022-08-05T11:27:10.088Z,57794.56
2022-08-05T11:28:10.274Z,57794.56
2022-08-05T11:29:17.569Z,57794.56
2022-08-05T11:30:18.294Z,57794.56
2022-08-05T11:31:19.683Z,47595.52
2022-08-05T11:33:01.315Z,26992.64
2022-08-05T11:34:04.854Z,21196.8
2022-08-05T11:35:08.404Z,27381.76
2022-08-05T11:36:15.692Z,40796.16
2022-08-05T11:38:27.386Z,53575.68
2022-08-05T11:39:55.696Z,32399.36
2022-08-05T11:41:14.288Z,23183.36
2022-08-05T11:43:04.912Z,49766.4
2022-08-05T11:44:08.225Z,42188.8
2022-08-05T11:45:14.111Z,42188.8
2022-08-05T11:47:48.203Z,65372.16
2022-08-05T11:48:55.273Z,56360.96
2022-08-05T11:49:55.387Z,55992.32
2022-08-05T11:50:56.052Z,61767.68
2022-08-05T11:51:57.289Z,67993.6
2022-08-05T11:52:58.333Z,67993.6
2022-08-05T11:54:01.277Z,67993.6
2022-08-05T11:55:07.190Z,67993.6
2022-08-05T11:56:12.626Z,67993.6
2022-08-05T11:57:24.670Z,67993.6
2022-08-05T11:58:27.418Z,66764.8
2022-08-05T11:59:28.263Z,66764.8
2022-08-05T12:00:52.672Z,66764.8
2022-08-05T12:01:54.006Z,57589.76
2022-08-05T12:02:54.191Z,40796.16
2022-08-05T12:03:57.007Z,28180.48
2022-08-05T12:04:59.449Z,20992
2022-08-05T12:06:00.763Z,18595.84
2022-08-05T12:07:01.113Z,16599.04
2022-08-05T12:08:03.936Z,14796.8
2022-08-05T12:09:19.893Z,20992
2022-08-05T12:10:20.373Z,23797.76
2022-08-05T12:11:20.717Z,30597.12
2022-08-05T12:12:20.891Z,43786.24
2022-08-05T12:13:28.250Z,43786.24
2022-08-05T12:14:50.229Z,43786.24
2022-08-05T12:15:52.231Z,57999.36
2022-08-05T12:16:56.291Z,44564.48
2022-08-05T12:18:03.509Z,57384.96
2022-08-05T12:20:17.392Z,71761.92
2022-08-05T12:21:34.035Z,71761.92
2022-08-05T12:22:39.618Z,79585.28
2022-08-05T12:23:43.045Z,79585.28
2022-08-05T12:24:49.519Z,79585.28
2022-08-05T12:25:50.767Z,62177.28
2022-08-05T12:26:51.197Z,47595.52
2022-08-05T12:27:53.387Z,41984
2022-08-05T12:28:53.751Z,31395.84
2022-08-05T12:29:56.900Z,48373.76
2022-08-05T12:30:57.154Z,53780.48
2022-08-05T12:31:57.285Z,66764.8
2022-08-05T12:32:57.446Z,66764.8
2022-08-05T12:34:38.652Z,66764.8
2022-08-05T12:35:43.040Z,51978.24
2022-08-05T12:36:43.321Z,34590.72
2022-08-05T12:37:43.762Z,26583.04
2022-08-05T12:38:43.871Z,23797.76
2022-08-05T12:39:44.013Z,21381.12
2022-08-05T12:40:53.996Z,21381.12
2022-08-05T12:41:58.088Z,21381.12
2022-08-05T12:42:58.367Z,21381.12
2022-08-05T12:43:58.647Z,24186.88
2022-08-05T12:44:58.768Z,34590.72
2022-08-05T12:45:58.879Z,34590.72
2022-08-05T12:46:59.171Z,26787.84
2022-08-05T12:48:01.899Z,23797.76
2022-08-05T12:50:02.522Z,18196.48
2022-08-05T12:51:21.588Z,18196.48
2022-08-05T12:53:36.895Z,18196.48
2022-08-05T12:54:38.932Z,18196.48
2022-08-05T12:55:39.680Z,18196.48
2022-08-05T12:56:43.282Z,14397.44
2022-08-05T12:58:13.590Z,14397.44
2022-08-05T13:00:09.183Z,14397.44
2022-08-05T13:03:12.157Z,55992.32
2022-08-05T13:04:19.184Z,55992.32
2022-08-05T13:05:25.130Z,55992.32
2022-08-05T13:06:37.812Z,61194.24
2022-08-05T13:07:57.931Z,61194.24
2022-08-05T13:09:02.136Z,54968.32
2022-08-05T13:10:02.321Z,43376.64
2022-08-05T13:11:02.733Z,37191.68
2022-08-05T13:12:04.648Z,26193.92
2022-08-05T13:14:04.451Z,19793.92
2022-08-05T13:15:11.178Z,13598.72
2022-08-05T13:16:41.565Z,26398.72
2022-08-05T13:17:42.538Z,36392.96
2022-08-05T13:18:43.406Z,57794.56
2022-08-05T13:19:51.149Z,66396.16
2022-08-05T13:20:53.218Z,80773.12
2022-08-05T13:21:56.095Z,80773.12
2022-08-05T13:22:59.167Z,80773.12
2022-08-05T13:23:59.291Z,71188.48
2022-08-05T13:25:00.558Z,63365.12
2022-08-05T13:26:51.290Z,36782.08
2022-08-05T13:27:51.398Z,28590.08
2022-08-05T13:28:52.470Z,22589.44
2022-08-05T13:29:59.335Z,22589.44
2022-08-05T13:32:03.535Z,17991.68
2022-08-05T13:33:06.365Z,17991.68
2022-08-05T13:34:20.724Z,17991.68
2022-08-05T13:35:31.600Z,17991.68
2022-08-05T13:36:52.108Z,17991.68
2022-08-05T13:37:55.411Z,17991.68
2022-08-05T13:38:56.081Z,17991.68
2022-08-05T13:40:13.274Z,17991.68
2022-08-05T13:41:52.433Z,17991.68
2022-08-05T13:42:55.576Z,16599.04
2022-08-05T13:43:55.970Z,14796.8
2022-08-05T13:44:56.079Z,14796.8
2022-08-05T13:45:59.138Z,13199.36
2022-08-05T13:47:02.099Z,11796.48
2022-08-05T13:48:56.839Z,10598.4
2022-08-05T13:50:04.308Z,10598.4
2022-08-05T13:51:16.242Z,9395.2
2022-08-05T13:52:16.357Z,9395.2
2022-08-05T13:53:16.470Z,9395.2
2022-08-05T13:54:16.603Z,9395.2
2022-08-05T13:55:41.360Z,9395.2
2022-08-05T13:57:02.100Z,9395.2
2022-08-05T13:58:02.372Z,9395.2
2022-08-05T13:59:06.159Z,9395.2
2022-08-05T14:00:27.982Z,11796.48
2022-08-05T14:01:36.335Z,11796.48
2022-08-05T14:03:00.994Z,11796.48
2022-08-05T14:04:01.806Z,11796.48
2022-08-05T14:05:01.917Z,11796.48
2022-08-05T14:06:05.064Z,11796.48
2022-08-05T14:07:56.694Z,13598.72
2022-08-05T14:09:27.208Z,12195.84
2022-08-05T14:10:30.729Z,13598.72
2022-08-05T14:11:31.476Z,16998.4
2022-08-05T14:12:32.051Z,16998.4
2022-08-05T14:13:33.157Z,18995.2
2022-08-05T14:14:34.679Z,16998.4
2022-08-05T14:16:04.119Z,16998.4
2022-08-05T14:17:17.704Z,16998.4
2022-08-05T14:18:23.101Z,16998.4
2022-08-05T14:19:24.354Z,16998.4
2022-08-05T14:20:27.158Z,16998.4
2022-08-05T14:22:07.672Z,16998.4
2022-08-05T14:23:12.477Z,16998.4
2022-08-05T14:24:26.058Z,17397.76
2022-08-05T14:25:27.847Z,19200
2022-08-05T14:26:35.860Z,19200
2022-08-05T14:28:15.941Z,13793.28
2022-08-05T14:29:28.294Z,12390.4
2022-08-05T14:30:31.578Z,12390.4
2022-08-05T14:31:54.680Z,13793.28
2022-08-05T14:33:27.678Z,13793.28
2022-08-05T14:35:01.493Z,13793.28
2022-08-05T14:36:01.980Z,16998.4
2022-08-05T14:37:02.263Z,18790.4
2022-08-05T14:38:02.837Z,20797.44
2022-08-05T14:39:04.629Z,23183.36
2022-08-05T14:40:05.057Z,25784.32
2022-08-05T14:41:05.662Z,23183.36
2022-08-05T14:42:19.823Z,23183.36
2022-08-05T14:43:54.119Z,23388.16
2022-08-05T14:45:22.037Z,23388.16
2022-08-05T14:46:23.237Z,23388.16
2022-08-05T14:48:04.403Z,23388.16
2022-08-05T14:49:56.558Z,23388.16
2022-08-05T14:51:18.727Z,53575.68
2022-08-05T14:52:36.546Z,53575.68
2022-08-05T14:54:06.832Z,53575.68
2022-08-05T14:55:38.846Z,42598.4
2022-08-05T14:56:43.964Z,42598.4
2022-08-05T14:57:54.192Z,42598.4
2022-08-05T14:58:56.866Z,52387.84
2022-08-05T14:59:56.975Z,52387.84
2022-08-05T15:01:00.226Z,58368
2022-08-05T15:02:01.866Z,51568.64
2022-08-05T15:03:03.320Z,44564.48
2022-08-05T15:04:09.757Z,33587.2
2022-08-05T15:05:13.483Z,29982.72
2022-08-05T15:06:15.571Z,33382.4
2022-08-05T15:08:04.489Z,36782.08
2022-08-05T15:10:01.301Z,22179.84
2022-08-05T15:11:03.973Z,17397.76
2022-08-05T15:12:04.138Z,17397.76
2022-08-05T15:13:04.755Z,17397.76
2022-08-05T15:14:10.758Z,21381.12
2022-08-05T15:15:54.816Z,34795.52
2022-08-05T15:16:56.679Z,39792.64
2022-08-05T15:17:56.795Z,39792.64
2022-08-05T15:18:56.920Z,30187.52
2022-08-05T15:20:01.015Z,23592.96
2022-08-05T15:21:07.819Z,20992
2022-08-05T15:22:08.397Z,18790.4
2022-08-05T15:23:09.133Z,18790.4
2022-08-05T15:24:09.249Z,16793.6
2022-08-05T15:25:11.738Z,14991.36
2022-08-05T15:26:15.038Z,14991.36
2022-08-05T15:27:15.392Z,14991.36
2022-08-05T15:28:16.130Z,14991.36
2022-08-05T15:29:16.381Z,14991.36
2022-08-05T15:30:16.634Z,16793.6
2022-08-05T15:31:16.770Z,23388.16
2022-08-05T15:32:16.918Z,34385.92
2022-08-05T15:33:21.938Z,34385.92
2022-08-05T15:35:35.913Z,34385.92
2022-08-05T15:36:45.881Z,34385.92
2022-08-05T15:38:09.045Z,48373.76
2022-08-05T15:40:42.226Z,48373.76